To NAV CANADA Home Page Login to a new session Search on AWWS site Feedback and Comments Disclaimer Vers la page française équivalente Tips FAQ What's new on the site To the Forecasts and Observations / NOTAM section To "File a Flight Plan" website Publications and other links Update of the User's profile FIC Telephone Numbers My Weather Data Folder Route Weather Data Regional Weather Data Local Weather Data To the Forecasts and Observations / NOTAM section
Request Generated 05/27/2016 at 04:28:43 UTC . Weather information available at that time is displayed.

METAR/TAF

ST. ANTHONY/NL    (show WxCam)

METAR CYAY 270400Z AUTO 35007KT 9SM OVC044 01/M02 A3031 RMK SLP267=
METAR CYAY 270300Z AUTO 36009KT 9SM OVC048 01/M03 A3030 RMK SLP265=
METAR CYAY 270200Z AUTO 01010KT 9SM SCT025 OVC032 02/M02 A3030 RMK
SLP263=

TAF CYAY 270138Z 2702/2714 36010G20KT P6SM BKN030 TEMPO 2702/2707
BKN020
FM270700 32007KT P6SM SCT020
RMK FCST BASED ON AUTO OBS. NXT FCST BY 270800Z=
Your time UTC time
Weather data provided by Environment Canada and NAV CANADA